Time;durP1;ratioP1;P1;durP2;ratioP2;P2;SDS_P1;SDS_P2;PMS_P1;PMS_P2;Temp;Humidity;BMP_temperature;BMP_pressure;BME280_temperature;BME280_humidity;BME280_pressure;Samples;Min_cycle;Max_cycle;Signal;HPM_P1;HPM_P2
2022/06/19 00:01:14;;;;;;;11.60;4.50;;;;;;;15.92;85.44;99551.60;105315;1265;68519;-68
2022/06/19 00:04:04;;;;;;;9.70;5.00;;;;;;;15.95;85.78;99550.92;105490;1265;73236;-68
2022/06/19 00:06:51;;;;;;;8.50;4.20;;;;;;;15.98;85.26;99539.02;105177;1268;60639;-68
2022/06/19 00:09:38;;;;;;;10.90;4.60;;;;;;;15.98;85.11;99534.86;105426;1265;60437;-70
2022/06/19 00:12:24;;;;;;;10.10;4.70;;;;;;;15.97;84.85;99537.27;105387;1265;75808;-69
2022/06/19 00:15:11;;;;;;;11.00;4.80;;;;;;;15.96;84.74;99549.39;105271;1265;67750;-68
2022/06/19 00:17:58;;;;;;;10.10;4.50;;;;;;;15.94;84.94;99552.42;105329;1268;74315;-68
2022/06/19 00:20:45;;;;;;;8.20;4.40;;;;;;;15.92;84.91;99551.99;105322;1268;61174;-69
2022/06/19 00:23:32;;;;;;;9.70;4.60;;;;;;;15.90;85.00;99554.47;105276;1268;60564;-69
2022/06/19 00:26:18;;;;;;;11.30;4.80;;;;;;;15.89;85.04;99549.65;105512;1265;74523;-68
2022/06/19 00:29:05;;;;;;;11.90;5.10;;;;;;;15.88;84.82;99544.95;105334;1265;69603;-68
2022/06/19 00:31:54;;;;;;;11.20;5.10;;;;;;;15.86;84.94;99536.90;105458;1265;74516;-67
2022/06/19 00:34:41;;;;;;;11.00;5.20;;;;;;;15.82;85.10;99549.23;105262;1268;60443;-69
2022/06/19 00:37:29;;;;;;;11.80;5.30;;;;;;;15.79;85.08;99556.02;105499;1265;60405;-68
2022/06/19 00:40:19;;;;;;;9.80;4.70;;;;;;;15.76;85.47;99552.98;105389;1268;74252;-67
2022/06/19 00:43:06;;;;;;;13.00;4.80;;;;;;;15.74;85.62;99559.99;105343;1268;69539;-68
2022/06/19 00:46:00;;;;;;;11.00;5.10;;;;;;;15.72;85.81;99563.21;105678;1265;74517;-68
2022/06/19 00:48:46;;;;;;;11.60;4.80;;;;;;;15.70;86.05;99546.79;105442;1265;60440;-68
2022/06/19 00:51:33;;;;;;;11.00;4.90;;;;;;;15.70;86.12;99544.86;105373;1266;60497;-67
2022/06/19 00:54:21;;;;;;;12.30;5.20;;;;;;;15.71;86.13;99552.85;105172;1268;74556;-67
2022/06/19 00:57:08;;;;;;;12.10;4.70;;;;;;;15.71;86.15;99567.02;105139;1268;69532;-67
2022/06/19 01:00:04;;;;;;;10.70;4.70;;;;;;;15.71;86.67;99567.80;105543;1267;74535;-65
2022/06/19 01:02:55;;;;;;;11.20;5.30;;;;;;;15.70;86.15;99580.44;105449;1268;60592;-65
2022/06/19 01:05:44;;;;;;;10.30;4.90;;;;;;;15.68;86.38;99581.31;105443;1268;60838;-64
2022/06/19 01:08:32;;;;;;;12.90;5.40;;;;;;;15.66;86.41;99587.58;105209;1267;73059;-63
2022/06/19 01:11:22;;;;;;;10.60;4.40;;;;;;;15.65;86.72;99590.59;105202;1268;68747;-65
2022/06/19 01:14:13;;;;;;;10.30;4.80;;;;;;;15.62;86.54;99579.05;105176;1268;73500;-64
2022/06/19 01:17:02;;;;;;;10.30;4.50;;;;;;;15.62;86.55;99571.27;105223;1268;61419;-65
2022/06/19 01:19:48;;;;;;;11.30;4.60;;;;;;;15.59;86.76;99564.19;105227;1267;60627;-64
2022/06/19 01:22:46;;;;;;;10.50;4.70;;;;;;;15.57;86.64;99568.38;105166;1265;74370;-65
2022/06/19 01:25:37;;;;;;;11.60;4.90;;;;;;;15.54;86.76;99562.50;105261;1268;68628;-65
2022/06/19 01:31:43;;;;;;;11.80;5.20;;;;;;;15.46;87.04;99552.35;105201;1267;60580;-67
2022/06/19 01:34:36;;;;;;;11.80;4.90;;;;;;;15.43;87.40;99547.83;105431;1265;60473;-67
2022/06/19 01:37:28;;;;;;;10.90;4.50;;;;;;;15.42;87.17;99557.88;105150;1268;75471;-68
2022/06/19 01:40:23;;;;;;;10.30;4.50;;;;;;;15.40;87.48;99566.76;105181;1268;69521;-69
2022/06/19 01:43:13;;;;;;;8.90;4.40;;;;;;;15.41;87.60;99574.70;105355;1265;74507;-70
2022/06/19 01:46:00;;;;;;;11.30;4.80;;;;;;;15.43;87.54;99576.30;105154;1265;60507;-68
2022/06/19 01:48:47;;;;;;;10.60;4.90;;;;;;;15.43;87.59;99569.38;105219;1265;60643;-67
2022/06/19 01:51:37;;;;;;;11.60;4.60;;;;;;;15.41;87.71;99562.03;105433;1265;75785;-68
2022/06/19 01:54:32;;;;;;;8.90;4.30;;;;;;;15.40;87.72;99563.60;105659;1265;68725;-68
2022/06/19 01:57:21;;;;;;;10.20;5.00;;;;;;;15.38;87.79;99559.88;105146;1268;74434;-68
2022/06/19 02:00:21;;;;;;;10.80;4.70;;;;;;;15.35;87.93;99557.32;105187;1266;61098;-68
2022/06/19 02:03:30;;;;;;;10.30;4.60;;;;;;;15.29;88.34;99540.58;105118;1268;60533;-67
2022/06/19 02:06:23;;;;;;;9.90;4.20;;;;;;;15.24;88.81;99533.84;105517;1268;74619;-69
2022/06/19 02:09:11;;;;;;;9.30;4.30;;;;;;;15.19;89.34;99532.66;105253;1265;68542;-67
2022/06/19 02:11:58;;;;;;;10.50;4.20;;;;;;;15.19;89.33;99540.10;105299;1268;73406;-67
2022/06/19 02:14:47;;;;;;;9.30;4.70;;;;;;;15.20;89.34;99535.98;105245;1265;60542;-66
2022/06/19 02:17:50;;;;;;;9.50;4.30;;;;;;;15.22;89.37;99532.92;105452;1265;60637;-67
2022/06/19 02:20:36;;;;;;;11.50;5.40;;;;;;;15.22;89.01;99521.11;105223;1265;75561;-67
2022/06/19 02:23:36;;;;;;;8.70;4.60;;;;;;;15.21;88.95;99527.31;105406;1265;69362;-69
2022/06/19 02:26:23;;;;;;;15.10;5.30;;;;;;;15.18;89.04;99531.55;105134;1265;74405;-68
2022/06/19 02:29:12;;;;;;;10.00;5.40;;;;;;;15.15;89.27;99535.07;105211;1265;60523;-69
2022/06/19 02:31:59;;;;;;;11.20;5.30;;;;;;;15.13;89.16;99536.17;105399;1265;60556;-68
2022/06/19 02:34:46;;;;;;;10.20;5.30;;;;;;;15.11;89.27;99536.56;105235;1265;75496;-67
2022/06/19 02:37:43;;;;;;;12.60;5.40;;;;;;;15.09;89.43;99526.77;105520;1265;68877;-69
2022/06/19 02:40:55;;;;;;;12.70;5.30;;;;;;;15.07;89.47;99520.20;105197;1265;73409;-67
2022/06/19 02:43:42;;;;;;;11.40;5.20;;;;;;;15.07;89.68;99518.29;105935;1265;60497;-67
2022/06/19 02:46:29;;;;;;;12.00;5.40;;;;;;;15.08;90.05;99512.48;106036;1265;61964;-70
2022/06/19 02:49:15;;;;;;;10.80;5.60;;;;;;;15.08;89.78;99522.79;106172;1264;75411;-66
2022/06/19 02:52:09;;;;;;;11.10;5.30;;;;;;;15.08;89.80;99533.14;106052;1265;66783;-69
2022/06/19 02:54:56;;;;;;;10.20;5.20;;;;;;;15.06;89.90;99536.71;105165;1265;73981;-69
2022/06/19 02:57:43;;;;;;;9.60;4.70;;;;;;;15.04;90.06;99521.46;105505;1265;60485;-69
2022/06/19 03:00:30;;;;;;;10.70;5.10;;;;;;;15.01;90.82;99521.04;105418;1265;60544;-70
2022/06/19 03:03:25;;;;;;;13.70;5.60;;;;;;;14.96;91.01;99533.45;105251;1265;74270;-68
2022/06/19 03:06:12;;;;;;;13.30;5.70;;;;;;;14.96;91.27;99544.33;105370;1265;68561;-67
2022/06/19 03:08:58;;;;;;;12.30;5.40;;;;;;;14.98;91.35;99543.77;105326;1265;74354;-69
2022/06/19 03:11:45;;;;;;;10.90;5.60;;;;;;;15.05;91.34;99554.89;105317;1265;60552;-68
2022/06/19 03:14:31;;;;;;;11.50;5.60;;;;;;;15.12;91.37;99559.17;105198;1265;60353;-67
2022/06/19 03:17:21;;;;;;;11.80;5.50;;;;;;;15.20;91.16;99557.42;105154;1265;74633;-65
2022/06/19 03:20:18;;;;;;;11.40;5.70;;;;;;;15.31;90.95;99560.73;105274;1265;69540;-69
2022/06/19 03:23:06;;;;;;;10.90;5.10;;;;;;;15.44;90.75;99552.59;105599;1265;74334;-69
2022/06/19 03:25:55;;;;;;;10.30;5.70;;;;;;;15.56;90.10;99553.63;105179;1265;60466;-66
2022/06/19 03:28:42;;;;;;;10.10;5.00;;;;;;;15.69;89.44;99552.61;105211;1265;60828;-67
2022/06/19 03:31:30;;;;;;;11.80;5.30;;;;;;;15.80;89.04;99554.02;105260;1265;73788;-68
2022/06/19 03:34:17;;;;;;;12.50;5.10;;;;;;;15.88;88.39;99546.52;105216;1265;68659;-70
2022/06/19 03:37:04;;;;;;;9.90;4.90;;;;;;;15.97;88.10;99544.77;105198;1265;73810;-67
2022/06/19 03:39:52;;;;;;;11.20;5.40;;;;;;;16.08;87.61;99552.65;104980;1265;60475;-70
2022/06/19 03:42:39;;;;;;;9.50;4.80;;;;;;;16.18;87.04;99557.54;105166;1265;61668;-69
2022/06/19 03:45:25;;;;;;;10.90;5.00;;;;;;;16.27;86.62;99562.00;105227;1265;75591;-68
2022/06/19 03:48:13;;;;;;;9.10;5.00;;;;;;;16.32;86.37;99557.94;105247;1265;67376;-66
2022/06/19 03:50:59;;;;;;;10.90;5.40;;;;;;;16.31;86.17;99545.52;105265;1265;71928;-71
2022/06/19 03:53:46;;;;;;;12.80;5.40;;;;;;;16.32;86.09;99544.09;105366;1265;61303;-69
2022/06/19 03:56:34;;;;;;;12.20;5.40;;;;;;;16.36;85.99;99535.72;105657;1265;60357;-69
2022/06/19 03:59:21;;;;;;;10.80;4.40;;;;;;;16.46;85.81;99534.64;105387;1266;75316;-70
2022/06/19 04:02:10;;;;;;;9.80;5.10;;;;;;;16.57;85.34;99542.36;105095;1268;69348;-69
2022/06/19 04:04:57;;;;;;;9.20;4.50;;;;;;;16.70;84.75;99549.02;105226;1268;72680;-70
2022/06/19 04:07:46;;;;;;;11.60;4.80;;;;;;;16.82;84.52;99543.02;105301;1268;60282;-67
2022/06/19 04:10:34;;;;;;;10.20;4.60;;;;;;;16.88;83.56;99543.30;105141;1270;61186;-69
2022/06/19 04:13:21;;;;;;;11.20;4.70;;;;;;;16.90;83.37;99539.62;105323;1265;74399;-70
2022/06/19 04:16:15;;;;;;;10.90;4.60;;;;;;;16.93;83.08;99540.69;105266;1265;68497;-70
2022/06/19 04:19:06;;;;;;;9.40;4.10;;;;;;;17.03;82.68;99535.85;105226;1265;72846;-71
2022/06/19 04:21:53;;;;;;;11.90;4.30;;;;;;;17.14;81.96;99528.96;105064;1265;60551;-70
2022/06/19 04:24:40;;;;;;;11.30;4.00;;;;;;;17.29;81.47;99520.53;105206;1265;61886;-71
2022/06/19 04:27:27;;;;;;;9.70;3.90;;;;;;;17.43;80.32;99505.70;105255;1265;73369;-71
2022/06/19 04:30:14;;;;;;;10.30;4.50;;;;;;;17.56;79.64;99505.34;105487;1265;69482;-70
2022/06/19 04:33:00;;;;;;;11.00;4.00;;;;;;;17.78;78.93;99500.92;105075;1265;74379;-73
2022/06/19 04:35:48;;;;;;;8.70;3.90;;;;;;;17.99;77.37;99496.68;105316;1265;60460;-70
2022/06/19 04:38:41;;;;;;;8.30;3.70;;;;;;;18.14;76.63;99498.20;105161;1265;62079;-69
2022/06/19 04:41:38;;;;;;;11.20;3.90;;;;;;;18.30;75.72;99506.88;105098;1265;75547;-70
2022/06/19 04:44:24;;;;;;;8.80;3.70;;;;;;;18.58;74.87;99512.89;105153;1265;68527;-69
2022/06/19 04:47:11;;;;;;;10.00;3.80;;;;;;;18.84;73.31;99520.42;105246;1265;73083;-70
2022/06/19 04:49:58;;;;;;;10.50;3.70;;;;;;;19.08;71.71;99523.77;105213;1266;60545;-70
2022/06/19 04:52:45;;;;;;;10.70;3.80;;;;;;;19.32;70.34;99514.73;105300;1265;60513;-72
2022/06/19 04:55:32;;;;;;;12.10;3.80;;;;;;;19.65;69.64;99500.66;104919;1271;75958;-70
2022/06/19 04:58:22;;;;;;;9.30;4.00;;;;;;;20.02;67.50;99494.48;105062;1268;68553;-69
2022/06/19 05:01:25;;;;;;;9.00;3.40;;;;;;;20.39;65.40;99491.83;104918;1268;74546;-70
2022/06/19 05:04:12;;;;;;;11.60;4.10;;;;;;;20.76;63.56;99484.16;105142;1268;60557;-72
2022/06/19 05:06:59;;;;;;;7.50;3.20;;;;;;;21.15;63.45;99484.70;105245;1268;61953;-73
2022/06/19 05:09:46;;;;;;;10.40;3.50;;;;;;;21.65;61.58;99488.52;105251;1268;74763;-75
2022/06/19 05:12:38;;;;;;;9.00;3.00;;;;;;;22.11;60.30;99487.97;105554;1268;68856;-73
2022/06/19 05:15:25;;;;;;;10.70;3.50;;;;;;;22.55;58.52;99481.25;105136;1268;74295;-69
2022/06/19 05:18:13;;;;;;;7.00;2.90;;;;;;;22.88;56.21;99474.31;105132;1266;60380;-77
2022/06/19 05:21:02;;;;;;;8.30;3.50;;;;;;;23.00;55.74;99460.27;105413;1268;329069;-74
2022/06/19 05:23:52;;;;;;;10.30;2.70;;;;;;;23.12;54.21;99456.02;105438;1268;72017;-73
2022/06/19 05:26:41;;;;;;;6.80;2.40;;;;;;;23.36;53.05;99449.86;105283;1268;66089;-72
2022/06/19 05:29:27;;;;;;;8.60;2.80;;;;;;;23.54;51.28;99440.96;105526;1268;74487;-74
2022/06/19 05:32:20;;;;;;;7.70;2.90;;;;;;;24.10;49.72;99434.62;105603;1268;60539;-72
2022/06/19 05:35:08;;;;;;;6.70;2.10;;;;;;;24.65;47.12;99437.07;105416;1268;60433;-74
2022/06/19 05:37:54;;;;;;;7.30;2.30;;;;;;;25.31;45.45;99436.75;105409;1268;75579;-74
2022/06/19 05:40:41;;;;;;;7.70;2.20;;;;;;;25.98;44.34;99434.30;105510;1268;69463;-75
2022/06/19 05:43:30;;;;;;;8.10;2.30;;;;;;;26.57;43.03;99433.05;105929;1268;74473;-75
2022/06/19 05:46:19;;;;;;;7.70;2.20;;;;;;;27.17;42.45;99448.34;105262;1268;60497;-77
2022/06/19 05:49:06;;;;;;;7.60;2.50;;;;;;;27.66;39.88;99451.13;105460;1268;60421;-75
2022/06/19 05:51:52;;;;;;;10.80;2.80;;;;;;;27.99;38.48;99452.90;105458;1268;74480;-74
2022/06/19 05:54:40;;;;;;;8.40;2.30;;;;;;;28.29;38.20;99439.94;105484;1268;67107;-74
2022/06/19 05:57:27;;;;;;;11.10;2.50;;;;;;;28.73;37.70;99434.05;105410;1268;73218;-75
2022/06/19 06:00:14;;;;;;;8.30;2.30;;;;;;;29.11;36.81;99433.35;105412;1268;60370;-75
2022/06/19 06:03:01;;;;;;;6.40;2.00;;;;;;;29.40;35.88;99434.06;105973;1268;60452;-73
2022/06/19 06:05:48;;;;;;;8.30;2.20;;;;;;;29.75;35.80;99435.92;105814;1268;74946;-74
2022/06/19 06:08:37;;;;;;;8.00;2.30;;;;;;;30.13;34.80;99442.54;107190;1267;68501;-73
2022/06/19 06:11:24;;;;;;;7.00;1.80;;;;;;;30.39;34.20;99439.74;106770;1267;72943;-72
2022/06/19 06:14:11;;;;;;;7.20;1.90;;;;;;;30.67;33.51;99431.45;106329;1268;60509;-75
2022/06/19 06:16:58;;;;;;;6.20;1.80;;;;;;;31.00;32.90;99434.27;106708;1265;60933;-71
2022/06/19 06:19:44;;;;;;;7.40;1.90;;;;;;;31.46;32.22;99442.30;106416;1268;71614;-73
2022/06/19 06:22:31;;;;;;;6.50;1.60;;;;;;;31.66;31.82;99436.80;105626;1265;65727;-74
2022/06/19 06:25:21;;;;;;;6.90;2.00;;;;;;;31.86;31.68;99437.89;105460;1265;75086;-71
2022/06/19 06:28:08;;;;;;;7.80;2.00;;;;;;;32.19;31.07;99437.77;105437;1265;60397;-70
2022/06/19 06:30:54;;;;;;;6.80;1.70;;;;;;;32.63;29.84;99435.13;105555;1265;60437;-73
2022/06/19 06:33:42;;;;;;;8.00;2.00;;;;;;;32.93;29.17;99428.46;105378;1265;75999;-76
2022/06/19 06:36:30;;;;;;;6.50;1.70;;;;;;;32.94;28.93;99418.65;105287;1268;67645;-72
2022/06/19 06:39:17;;;;;;;7.80;1.90;;;;;;;33.14;29.10;99414.08;105374;1268;71620;-70
2022/06/19 06:42:04;;;;;;;6.70;1.70;;;;;;;33.21;28.69;99405.77;105762;1268;60354;-79
2022/06/19 06:44:51;;;;;;;6.30;1.70;;;;;;;33.32;28.66;99408.52;105168;1268;61122;-75
2022/06/19 06:47:37;;;;;;;6.20;1.60;;;;;;;33.54;28.36;99399.10;105458;1266;73962;-70
2022/06/19 06:50:24;;;;;;;5.90;1.50;;;;;;;33.76;27.81;99403.34;105321;1267;69655;-75
2022/06/19 06:53:13;;;;;;;6.70;1.80;;;;;;;33.99;27.52;99407.83;105505;1264;74445;-72
2022/06/19 06:56:00;;;;;;;6.10;1.70;;;;;;;34.09;27.22;99410.98;105574;1265;60427;-73
2022/06/19 06:58:47;;;;;;;7.20;1.90;;;;;;;34.07;27.36;99414.32;105417;1265;61922;-72
2022/06/19 07:01:34;;;;;;;8.00;1.70;;;;;;;34.28;27.26;99416.11;105681;1265;73017;-73
2022/06/19 07:04:21;;;;;;;8.70;1.90;;;;;;;34.54;26.83;99430.73;105485;1265;68672;-72
2022/06/19 07:07:07;;;;;;;7.40;1.90;;;;;;;34.51;26.74;99453.42;105463;1265;72904;-71
2022/06/19 07:09:54;;;;;;;5.70;1.80;;;;;;;34.49;27.00;99469.02;105356;1265;60453;-73
2022/06/19 07:12:40;;;;;;;6.80;1.60;;;;;;;34.52;26.89;99477.88;105211;1265;60434;-72
2022/06/19 07:15:27;;;;;;;8.40;2.10;;;;;;;34.61;26.77;99485.67;105530;1265;76143;-73
2022/06/19 07:18:14;;;;;;;7.10;1.70;;;;;;;34.79;26.47;99483.09;105404;1268;69632;-72
2022/06/19 07:21:02;;;;;;;6.20;1.60;;;;;;;34.97;26.60;99471.79;105519;1265;74323;-73
2022/06/19 07:23:54;;;;;;;6.30;2.00;;;;;;;35.27;25.96;99464.98;105483;1265;60477;-70
2022/06/19 07:26:41;;;;;;;7.20;1.70;;;;;;;35.40;25.57;99453.84;105758;1265;60455;-73
2022/06/19 07:29:27;;;;;;;6.90;1.90;;;;;;;35.45;25.82;99432.74;105506;1265;72503;-73
2022/06/19 07:32:14;;;;;;;8.00;1.60;;;;;;;35.45;25.63;99426.77;105528;1265;66648;-70
2022/06/19 07:35:01;;;;;;;7.00;1.70;;;;;;;35.42;25.48;99418.09;105455;1265;74373;-74
2022/06/19 07:37:47;;;;;;;7.30;2.00;;;;;;;35.34;25.50;99411.13;105317;1265;60564;-74
2022/06/19 07:40:36;;;;;;;6.80;1.80;;;;;;;35.15;25.80;99395.41;105450;1268;62275;-73
2022/06/19 07:43:28;;;;;;;7.10;1.90;;;;;;;35.16;26.19;99393.73;105604;1265;74009;-73
2022/06/19 07:46:15;;;;;;;7.60;2.00;;;;;;;35.20;25.67;99393.80;105390;1268;69393;-76
2022/06/19 07:52:08;;;;;;;7.40;1.70;;;;;;;34.84;25.86;99391.26;105536;1265;60491;-77
2022/06/19 07:54:54;;;;;;;8.60;2.00;;;;;;;34.63;26.07;99374.10;105573;1265;60456;-72
2022/06/19 07:57:41;;;;;;;6.80;1.80;;;;;;;34.78;25.93;99367.34;105497;1265;72723;-70
2022/06/19 08:00:33;;;;;;;6.70;2.00;;;;;;;34.99;25.46;99353.80;105455;1265;67895;-71
2022/06/19 08:03:20;;;;;;;7.70;2.20;;;;;;;34.45;25.73;99354.77;105531;1265;73309;-70
2022/06/19 08:06:09;;;;;;;7.70;1.90;;;;;;;32.97;27.32;99352.68;105598;1265;60420;-73
2022/06/19 08:08:56;;;;;;;6.60;1.90;;;;;;;32.19;28.61;99341.33;105287;1265;60415;-70
2022/06/19 08:11:43;;;;;;;7.90;2.30;;;;;;;31.88;29.35;99337.27;105093;1265;75962;-70
2022/06/19 08:14:33;;;;;;;7.40;2.20;;;;;;;32.19;29.39;99329.98;105192;1264;68285;-70
2022/06/19 08:17:20;;;;;;;8.10;2.40;;;;;;;32.58;29.18;99319.55;105401;1264;74224;-71
2022/06/19 08:20:09;;;;;;;8.30;2.20;;;;;;;32.91;28.37;99314.36;105171;1265;60459;-70
2022/06/19 08:22:57;;;;;;;8.80;2.60;;;;;;;33.11;28.12;99314.93;105465;1265;60472;-69
2022/06/19 08:25:45;;;;;;;9.20;2.20;;;;;;;33.42;27.66;99310.29;105424;1265;74463;-72
2022/06/19 08:31:18;;;;;;;8.10;1.90;;;;;;;33.63;26.40;99307.02;105594;1265;72430;-75
2022/06/19 08:34:05;;;;;;;7.70;1.80;;;;;;;33.51;26.65;99306.42;105623;1265;60356;-75
2022/06/19 08:36:53;;;;;;;7.60;2.00;;;;;;;33.49;26.23;99313.92;105732;1265;60540;-74
2022/06/19 08:39:40;;;;;;;9.40;1.80;;;;;;;33.42;26.23;99319.84;105528;1265;75644;-77
2022/06/19 08:43:01;;;;;;;9.20;2.00;;;;;;;33.37;26.78;99323.73;105516;1265;69735;-74
2022/06/19 08:46:20;;;;;;;8.10;1.70;;;;;;;33.37;26.66;99327.05;105972;1265;71922;-72
2022/06/19 08:49:35;;;;;;;8.20;1.80;;;;;;;33.35;26.72;99324.05;105484;1265;60502;-73
2022/06/19 08:53:12;;;;;;;8.20;1.80;;;;;;;33.51;26.45;99314.36;105525;1265;60896;-73
2022/06/19 08:56:49;;;;;;;7.90;1.80;;;;;;;33.29;26.36;99313.66;105632;1265;74593;-73
2022/06/19 09:00:04;;;;;;;9.00;1.70;;;;;;;33.26;26.11;99306.30;105535;1265;69937;-70
2022/06/19 09:03:22;;;;;;;7.90;1.70;;;;;;;33.33;25.71;99301.78;105391;1265;72074;-70
2022/06/19 09:06:20;;;;;;;9.10;1.80;;;;;;;33.54;25.63;99294.20;105576;1265;60446;-70
2022/06/19 09:09:13;;;;;;;9.10;1.70;;;;;;;33.57;25.45;99300.17;105508;1265;61483;-69
2022/06/19 09:12:42;;;;;;;9.80;2.20;;;;;;;33.76;25.55;99301.05;105637;1265;75590;-69
2022/06/19 09:15:42;;;;;;;9.50;2.10;;;;;;;33.66;25.64;99303.19;105472;1265;67354;-69
2022/06/19 09:19:12;;;;;;;8.40;2.70;;;;;;;33.42;26.13;99306.65;105464;1265;74733;-71
2022/06/19 09:22:24;;;;;;;12.10;3.10;;;;;;;33.14;25.70;99312.27;105676;1265;60344;-73
2022/06/19 09:25:26;;;;;;;8.00;2.20;;;;;;;33.19;25.37;99326.13;105436;1265;60375;-68
2022/06/19 09:28:34;;;;;;;9.00;2.30;;;;;;;32.77;25.56;99324.09;105475;1265;73044;-71
2022/06/19 09:31:39;;;;;;;8.90;3.60;;;;;;;31.97;26.55;99316.52;105538;1265;68495;-72
2022/06/19 09:34:52;;;;;;;9.20;2.20;;;;;;;31.77;26.33;99325.09;105537;1265;71993;-69
2022/06/19 09:37:51;;;;;;;9.00;2.10;;;;;;;31.91;25.87;99320.98;105596;1265;60578;-69
2022/06/19 09:40:49;;;;;;;7.70;1.70;;;;;;;32.21;25.56;99303.04;105396;1265;61067;-69
2022/06/19 09:43:45;;;;;;;9.20;1.80;;;;;;;32.60;24.76;99290.63;105640;1265;75445;-70
2022/06/19 09:46:47;;;;;;;9.30;1.80;;;;;;;32.69;24.37;99283.04;105656;1265;68419;-72
2022/06/19 09:50:25;;;;;;;7.00;1.60;;;;;;;32.49;24.53;99273.33;105798;1265;74712;-72
2022/06/19 09:53:38;;;;;;;7.80;2.00;;;;;;;32.23;25.13;99264.66;105133;1268;60670;-71
2022/06/19 09:57:09;;;;;;;10.50;4.00;;;;;;;32.14;25.82;99263.97;105586;1265;60460;-69
2022/06/19 10:00:09;;;;;;;9.40;3.20;;;;;;;32.25;25.63;99267.79;105462;1265;74473;-72
2022/06/19 10:03:05;;;;;;;8.30;2.30;;;;;;;32.25;26.18;99266.30;105727;1265;68546;-70
2022/06/19 10:06:06;;;;;;;7.40;2.10;;;;;;;32.17;26.11;99269.09;105452;1265;71914;-69
2022/06/19 10:08:57;;;;;;;9.20;2.10;;;;;;;32.08;26.08;99267.45;105454;1265;60627;-72
2022/06/19 10:11:45;;;;;;;8.80;2.00;;;;;;;31.89;25.64;99273.95;105459;1265;60405;-70
2022/06/19 10:14:41;;;;;;;8.40;2.40;;;;;;;31.72;26.16;99285.39;105435;1265;74272;-70
2022/06/19 10:17:57;;;;;;;10.10;2.30;;;;;;;31.43;26.12;99304.05;105358;1265;69710;-69
2022/06/19 10:25:21;;;;;;;10.50;4.60;;;;;;;29.77;26.34;99313.27;104971;1274;60518;-68
2022/06/19 10:28:58;;;;;;;11.30;2.90;;;;;;;29.05;27.22;99311.58;104966;1274;60716;-70
2022/06/19 10:32:41;;;;;;;7.20;1.80;;;;;;;28.68;27.51;99303.27;104959;1274;72863;-69
2022/06/19 10:36:16;;;;;;;10.10;2.00;;;;;;;29.14;26.52;99288.83;104268;1279;69669;-70
2022/06/19 10:39:43;;;;;;;10.40;1.90;;;;;;;29.91;25.59;99275.48;104590;1279;75080;-71
2022/06/19 10:43:18;;;;;;;10.00;2.00;;;;;;;30.50;24.63;99262.71;104160;1279;60889;-70
2022/06/19 10:46:08;;;;;;;10.40;1.80;;;;;;;30.95;25.55;99265.39;104228;1279;62124;-70
2022/06/19 10:49:18;;;;;;;9.10;1.80;;;;;;;30.95;26.03;99273.35;104372;1279;72930;-70
2022/06/19 10:52:15;;;;;;;9.90;1.90;;;;;;;31.01;27.32;99277.27;104434;1279;68021;-70
2022/06/19 10:55:54;;;;;;;10.50;2.20;;;;;;;30.94;27.25;99269.39;104494;1279;74901;-69
2022/06/19 10:58:41;;;;;;;8.20;1.60;;;;;;;30.64;27.55;99255.17;104624;1273;60376;-72
2022/06/19 11:05:10;;;;;;;8.80;1.80;;;;;;;30.10;27.65;99235.90;104595;1274;74409;-69
2022/06/19 11:07:57;;;;;;;9.80;2.10;;;;;;;29.67;28.07;99219.73;105126;1273;69738;-68
2022/06/19 11:10:56;;;;;;;11.60;3.60;;;;;;;29.39;28.60;99216.39;104881;1273;73539;-71
2022/06/19 11:13:55;;;;;;;11.40;2.20;;;;;;;28.94;28.66;99205.79;105291;1265;60458;-70
2022/06/19 11:16:56;;;;;;;12.30;2.60;;;;;;;28.62;28.73;99202.27;105563;1268;60410;-70
2022/06/19 11:19:48;;;;;;;9.70;2.50;;;;;;;28.17;28.99;99200.64;105288;1265;72484;-70
2022/06/19 11:22:41;;;;;;;10.40;2.70;;;;;;;27.83;29.07;99197.65;105396;1265;68585;-70
2022/06/19 11:25:34;;;;;;;10.10;2.30;;;;;;;27.59;29.28;99201.20;105135;1265;73386;-71
2022/06/19 11:28:21;;;;;;;8.90;1.60;;;;;;;27.43;29.93;99196.55;105349;1265;61878;-70
2022/06/19 11:31:15;;;;;;;10.10;1.80;;;;;;;27.02;30.38;99191.61;105411;1265;61983;-70
2022/06/19 11:37:37;;;;;;;8.50;1.80;;;;;;;25.96;32.42;99190.60;105346;1265;68604;-72
2022/06/19 11:40:38;;;;;;;10.40;1.80;;;;;;;25.43;33.99;99192.41;105376;1265;73354;-72
2022/06/19 11:43:32;;;;;;;10.40;1.50;;;;;;;25.01;36.09;99190.15;105331;1265;60542;-70
2022/06/19 11:46:26;;;;;;;10.00;1.60;;;;;;;24.64;35.69;99187.41;105389;1265;61259;-69
2022/06/19 11:49:28;;;;;;;9.70;1.50;;;;;;;24.36;35.87;99187.02;105110;1265;75044;-68
2022/06/19 11:52:28;;;;;;;10.30;1.80;;;;;;;23.87;36.15;99179.59;105301;1265;69579;-68
2022/06/19 11:55:22;;;;;;;9.00;1.40;;;;;;;23.43;36.52;99168.85;105068;1265;73265;-68
2022/06/19 11:58:36;;;;;;;7.10;1.40;;;;;;;23.12;37.21;99163.24;105063;1267;60502;-68
2022/06/19 12:01:38;;;;;;;7.80;1.40;;;;;;;22.99;38.27;99164.54;105023;1267;61074;-68
2022/06/19 12:04:39;;;;;;;7.50;1.30;;;;;;;22.88;39.35;99159.45;105386;1268;74782;-70
2022/06/19 12:07:31;;;;;;;7.90;1.40;;;;;;;22.80;39.41;99149.27;105361;1266;67174;-69
2022/06/19 12:10:26;;;;;;;7.40;1.50;;;;;;;22.69;40.40;99139.78;105280;1265;72159;-69
2022/06/19 12:13:26;;;;;;;7.90;1.40;;;;;;;22.67;41.15;99139.85;105766;1264;60332;-70
2022/06/19 12:16:23;;;;;;;7.10;1.50;;;;;;;22.62;40.88;99141.52;105125;1265;60453;-67
2022/06/19 12:19:29;;;;;;;6.80;1.30;;;;;;;22.57;40.38;99135.55;105528;1265;75586;-67
2022/06/19 12:22:20;;;;;;;8.70;1.50;;;;;;;22.29;40.97;99135.14;105268;1265;68993;-72
2022/06/19 12:25:31;;;;;;;7.80;1.20;;;;;;;22.15;41.65;99128.22;105291;1265;73360;-69
2022/06/19 12:28:29;;;;;;;9.00;1.50;;;;;;;22.12;40.89;99117.48;105430;1264;60448;-68
2022/06/19 12:31:22;;;;;;;6.00;1.20;;;;;;;22.03;39.99;99115.33;105224;1265;60949;-68
2022/06/19 12:34:31;;;;;;;7.70;1.30;;;;;;;21.94;39.83;99118.33;105532;1265;74017;-69
2022/06/19 12:37:27;;;;;;;7.00;1.40;;;;;;;21.82;39.56;99114.27;105275;1265;68541;-69
2022/06/19 12:40:18;;;;;;;7.60;1.30;;;;;;;21.72;40.07;99128.42;105384;1265;72493;-70
2022/06/19 12:43:38;;;;;;;7.50;1.40;;;;;;;21.64;40.77;99128.13;105063;1265;60537;-71
2022/06/19 12:47:16;;;;;;;6.00;1.10;;;;;;;21.46;41.13;99124.63;105196;1265;60565;-67
2022/06/19 12:51:03;;;;;;;7.70;1.20;;;;;;;21.36;41.78;99124.24;105317;1265;74212;-69
2022/06/19 12:53:52;;;;;;;7.90;1.50;;;;;;;21.10;42.92;99136.59;105430;1265;69810;-66
2022/06/19 12:57:00;;;;;;;9.40;1.40;;;;;;;21.10;42.90;99135.13;105230;1264;74244;-72
2022/06/19 13:00:04;;;;;;;7.90;1.60;;;;;;;21.01;42.52;99129.35;105800;1265;60437;-68
2022/06/19 13:03:03;;;;;;;7.90;2.20;;;;;;;20.86;42.37;99127.73;105628;1264;60522;-66
2022/06/19 13:06:16;;;;;;;9.90;2.60;;;;;;;20.76;42.26;99134.60;105470;1265;74511;-67
2022/06/19 13:09:41;;;;;;;9.20;3.80;;;;;;;20.70;42.12;99127.24;105358;1265;68422;-68
2022/06/19 13:12:47;;;;;;;8.80;2.00;;;;;;;20.74;41.90;99119.09;105338;1265;74448;-70
2022/06/19 13:15:49;;;;;;;8.80;2.70;;;;;;;20.57;41.81;99131.00;105050;1265;60615;-68
2022/06/19 13:18:54;;;;;;;7.60;2.00;;;;;;;20.45;42.27;99126.41;105357;1265;60500;-67
2022/06/19 13:22:21;;;;;;;9.10;1.60;;;;;;;20.44;42.34;99119.73;105342;1265;75574;-70
2022/06/19 13:25:24;;;;;;;7.00;1.50;;;;;;;20.42;43.06;99104.64;105394;1265;68060;-71
2022/06/19 13:28:22;;;;;;;9.10;2.30;;;;;;;20.59;43.11;99102.69;105335;1265;73321;-68
2022/06/19 13:31:33;;;;;;;7.80;2.60;;;;;;;20.78;42.54;99094.23;105591;1265;60440;-69
2022/06/19 13:34:57;;;;;;;10.50;2.90;;;;;;;20.91;42.44;99095.38;105527;1265;61029;-70
2022/06/19 13:38:12;;;;;;;9.00;3.10;;;;;;;21.09;42.40;99093.59;105291;1265;74820;-70
2022/06/19 13:41:36;;;;;;;8.00;2.10;;;;;;;21.27;42.29;99087.05;105820;1265;69734;-70
2022/06/19 13:44:56;;;;;;;8.80;1.70;;;;;;;21.47;42.08;99097.80;105453;1265;71409;-68
2022/06/19 13:48:19;;;;;;;8.50;2.60;;;;;;;21.48;42.11;99083.44;105625;1265;60507;-68
2022/06/19 13:51:24;;;;;;;12.90;6.20;;;;;;;21.46;41.99;99099.60;105132;1265;60522;-71